sensor_id;sensor_type;location;lat;lon;timestamp;pressure;altitude;pressure_sealevel;temperature;humidity
76195;BME280;64964;48.694;21.206;2024-02-04T00:00:25;98011.09;;;5.07;70.40
76195;BME280;64964;48.694;21.206;2024-02-04T00:02:51;98019.78;;;5.08;70.01
76195;BME280;64964;48.694;21.206;2024-02-04T00:05:16;98012.09;;;5.06;70.17
76195;BME280;64964;48.694;21.206;2024-02-04T00:07:43;97997.13;;;4.97;70.53
76195;BME280;64964;48.694;21.206;2024-02-04T00:10:09;98009.69;;;4.93;70.79
76195;BME280;64964;48.694;21.206;2024-02-04T00:12:34;98018.34;;;4.84;71.21
76195;BME280;64964;48.694;21.206;2024-02-04T00:14:59;98027.47;;;4.90;70.93
76195;BME280;64964;48.694;21.206;2024-02-04T00:17:25;98034.50;;;4.89;70.41
76195;BME280;64964;48.694;21.206;2024-02-04T00:19:55;98024.53;;;4.83;71.39
76195;BME280;64964;48.694;21.206;2024-02-04T00:22:21;98023.56;;;4.74;71.65
76195;BME280;64964;48.694;21.206;2024-02-04T00:24:46;98032.22;;;4.75;71.75
76195;BME280;64964;48.694;21.206;2024-02-04T00:27:12;98036.50;;;4.76;71.17
76195;BME280;64964;48.694;21.206;2024-02-04T00:29:37;98024.94;;;4.79;71.24
76195;BME280;64964;48.694;21.206;2024-02-04T00:32:03;98023.88;;;4.81;71.39
76195;BME280;64964;48.694;21.206;2024-02-04T00:34:28;98039.00;;;4.78;71.41
76195;BME280;64964;48.694;21.206;2024-02-04T00:36:53;98038.47;;;4.84;71.38
76195;BME280;64964;48.694;21.206;2024-02-04T00:39:19;98012.44;;;4.92;71.43
76195;BME280;64964;48.694;21.206;2024-02-04T00:41:44;97998.34;;;4.83;71.74
76195;BME280;64964;48.694;21.206;2024-02-04T00:44:09;97990.91;;;4.88;71.77
76195;BME280;64964;48.694;21.206;2024-02-04T00:46:35;97992.59;;;4.89;72.14
76195;BME280;64964;48.694;21.206;2024-02-04T00:49:00;98005.25;;;4.84;72.62
76195;BME280;64964;48.694;21.206;2024-02-04T00:51:25;97999.06;;;4.85;72.12
76195;BME280;64964;48.694;21.206;2024-02-04T00:53:51;97988.44;;;4.87;72.08
76195;BME280;64964;48.694;21.206;2024-02-04T00:56:18;97994.09;;;4.92;71.93
76195;BME280;64964;48.694;21.206;2024-02-04T00:58:43;98008.03;;;4.92;71.87
76195;BME280;64964;48.694;21.206;2024-02-04T01:01:08;97981.25;;;4.89;71.60
76195;BME280;64964;48.694;21.206;2024-02-04T01:03:34;97984.59;;;5.00;71.58
76195;BME280;64964;48.694;21.206;2024-02-04T01:05:59;98008.47;;;4.97;71.64
76195;BME280;64964;48.694;21.206;2024-02-04T01:08:25;98015.78;;;4.94;71.68
76195;BME280;64964;48.694;21.206;2024-02-04T01:10:50;98006.78;;;4.96;71.94
76195;BME280;64964;48.694;21.206;2024-02-04T01:13:18;97995.91;;;4.91;71.71
76195;BME280;64964;48.694;21.206;2024-02-04T01:15:44;98009.41;;;4.96;72.02
76195;BME280;64964;48.694;21.206;2024-02-04T01:18:09;98004.19;;;4.96;71.73
76195;BME280;64964;48.694;21.206;2024-02-04T01:20:34;97994.25;;;5.00;71.83
76195;BME280;64964;48.694;21.206;2024-02-04T01:23:00;97989.03;;;5.00;71.57
76195;BME280;64964;48.694;21.206;2024-02-04T01:25:25;97964.63;;;4.99;71.20
76195;BME280;64964;48.694;21.206;2024-02-04T01:27:51;97999.50;;;5.10;71.55
76195;BME280;64964;48.694;21.206;2024-02-04T01:30:16;98010.41;;;5.05;72.46
76195;BME280;64964;48.694;21.206;2024-02-04T01:32:41;98001.31;;;5.09;71.93
76195;BME280;64964;48.694;21.206;2024-02-04T01:35:07;97995.09;;;5.00;72.26
76195;BME280;64964;48.694;21.206;2024-02-04T01:37:33;98002.84;;;5.12;72.36
76195;BME280;64964;48.694;21.206;2024-02-04T01:39:58;97988.66;;;5.14;72.12
76195;BME280;64964;48.694;21.206;2024-02-04T01:42:23;97983.94;;;5.18;72.12
76195;BME280;64964;48.694;21.206;2024-02-04T01:44:49;97965.34;;;5.21;72.18
76195;BME280;64964;48.694;21.206;2024-02-04T01:47:14;97953.63;;;5.15;72.04
76195;BME280;64964;48.694;21.206;2024-02-04T01:49:40;97961.22;;;5.28;71.80
76195;BME280;64964;48.694;21.206;2024-02-04T01:52:07;97963.00;;;5.28;72.18
76195;BME280;64964;48.694;21.206;2024-02-04T01:54:33;97963.84;;;5.28;72.25
76195;BME280;64964;48.694;21.206;2024-02-04T01:56:59;97971.13;;;5.34;71.81
76195;BME280;64964;48.694;21.206;2024-02-04T01:59:29;97974.19;;;5.39;71.95
76195;BME280;64964;48.694;21.206;2024-02-04T02:02:01;97969.06;;;5.38;71.77
76195;BME280;64964;48.694;21.206;2024-02-04T02:04:28;97963.56;;;5.41;71.68
76195;BME280;64964;48.694;21.206;2024-02-04T02:06:54;97957.91;;;5.36;71.44
76195;BME280;64964;48.694;21.206;2024-02-04T02:09:20;97975.56;;;5.43;71.44
76195;BME280;64964;48.694;21.206;2024-02-04T02:14:23;97958.59;;;5.38;71.10
76195;BME280;64964;48.694;21.206;2024-02-04T02:16:51;97959.81;;;5.24;71.50
76195;BME280;64964;48.694;21.206;2024-02-04T02:19:42;97978.59;;;5.19;71.91
76195;BME280;64964;48.694;21.206;2024-02-04T02:22:29;97964.50;;;5.20;71.60
76195;BME280;64964;48.694;21.206;2024-02-04T02:25:02;97921.88;;;4.99;71.48
76195;BME280;64964;48.694;21.206;2024-02-04T02:27:30;97953.63;;;5.15;71.63
76195;BME280;64964;48.694;21.206;2024-02-04T02:29:55;97955.69;;;5.12;71.74
76195;BME280;64964;48.694;21.206;2024-02-04T02:32:21;97953.19;;;5.10;71.70
76195;BME280;64964;48.694;21.206;2024-02-04T02:34:46;97934.97;;;4.99;71.82
76195;BME280;64964;48.694;21.206;2024-02-04T02:37:34;97893.84;;;4.70;72.11
76195;BME280;64964;48.694;21.206;2024-02-04T02:40:08;97932.63;;;4.96;71.68
76195;BME280;64964;48.694;21.206;2024-02-04T02:42:41;97950.97;;;5.06;71.53
76195;BME280;64964;48.694;21.206;2024-02-04T02:45:07;97931.22;;;5.02;71.64
76195;BME280;64964;48.694;21.206;2024-02-04T02:47:33;97918.69;;;5.05;71.68
76195;BME280;64964;48.694;21.206;2024-02-04T02:50:00;97917.88;;;5.05;71.73
76195;BME280;64964;48.694;21.206;2024-02-04T02:52:25;97924.75;;;5.06;71.58
76195;BME280;64964;48.694;21.206;2024-02-04T02:54:51;97941.34;;;5.06;71.60
76195;BME280;64964;48.694;21.206;2024-02-04T02:57:16;97954.44;;;5.06;71.67
76195;BME280;64964;48.694;21.206;2024-02-04T02:59:42;97951.94;;;5.05;71.35
76195;BME280;64964;48.694;21.206;2024-02-04T03:02:07;97940.78;;;5.03;71.24
76195;BME280;64964;48.694;21.206;2024-02-04T03:04:33;97945.03;;;5.04;71.42
76195;BME280;64964;48.694;21.206;2024-02-04T03:06:58;97910.69;;;4.78;71.84
76195;BME280;64964;48.694;21.206;2024-02-04T03:09:23;97935.22;;;4.96;71.63
76195;BME280;64964;48.694;21.206;2024-02-04T03:11:49;97922.41;;;4.83;72.08
76195;BME280;64964;48.694;21.206;2024-02-04T03:14:16;97912.91;;;4.92;71.55
76195;BME280;64964;48.694;21.206;2024-02-04T03:16:46;97934.97;;;4.89;71.70
76195;BME280;64964;48.694;21.206;2024-02-04T03:19:11;97935.66;;;4.91;71.83
76195;BME280;64964;48.694;21.206;2024-02-04T03:21:37;97936.47;;;4.92;71.54
76195;BME280;64964;48.694;21.206;2024-02-04T03:24:02;97954.81;;;4.92;71.58
76195;BME280;64964;48.694;21.206;2024-02-04T03:26:28;97966.25;;;4.91;71.53
76195;BME280;64964;48.694;21.206;2024-02-04T03:28:53;97937.97;;;4.85;71.52
76195;BME280;64964;48.694;21.206;2024-02-04T03:31:22;97946.13;;;4.91;71.42
76195;BME280;64964;48.694;21.206;2024-02-04T03:33:48;97941.03;;;4.90;71.64
76195;BME280;64964;48.694;21.206;2024-02-04T03:36:19;97920.75;;;4.82;71.84
76195;BME280;64964;48.694;21.206;2024-02-04T03:38:45;97934.25;;;4.87;71.62
76195;BME280;64964;48.694;21.206;2024-02-04T03:41:10;97921.16;;;4.78;71.72
76195;BME280;64964;48.694;21.206;2024-02-04T03:43:36;97927.22;;;4.88;71.65
76195;BME280;64964;48.694;21.206;2024-02-04T03:46:02;97928.06;;;4.88;71.61
76195;BME280;64964;48.694;21.206;2024-02-04T03:48:27;97919.50;;;4.86;71.60
76195;BME280;64964;48.694;21.206;2024-02-04T03:50:52;97927.38;;;4.86;71.62
76195;BME280;64964;48.694;21.206;2024-02-04T03:53:18;97924.59;;;4.88;72.01
76195;BME280;64964;48.694;21.206;2024-02-04T03:55:44;97906.00;;;4.81;72.00
76195;BME280;64964;48.694;21.206;2024-02-04T03:58:09;97894.41;;;4.74;72.00
76195;BME280;64964;48.694;21.206;2024-02-04T04:00:35;97906.13;;;4.80;72.09
76195;BME280;64964;48.694;21.206;2024-02-04T04:03:00;97891.63;;;4.66;72.12
76195;BME280;64964;48.694;21.206;2024-02-04T04:05:26;97902.53;;;4.71;72.13
76195;BME280;64964;48.694;21.206;2024-02-04T04:07:51;97935.09;;;4.88;72.24
76195;BME280;64964;48.694;21.206;2024-02-04T04:10:17;97906.00;;;4.91;72.37
76195;BME280;64964;48.694;21.206;2024-02-04T04:12:42;97904.31;;;4.80;71.76
76195;BME280;64964;48.694;21.206;2024-02-04T04:15:07;97891.22;;;4.61;72.40
76195;BME280;64964;48.694;21.206;2024-02-04T04:17:33;97901.13;;;4.67;72.41
76195;BME280;64964;48.694;21.206;2024-02-04T04:19:58;97894.25;;;4.66;72.53
76195;BME280;64964;48.694;21.206;2024-02-04T04:22:24;97890.25;;;4.71;72.57
76195;BME280;64964;48.694;21.206;2024-02-04T04:24:49;97883.50;;;4.69;72.79
76195;BME280;64964;48.694;21.206;2024-02-04T04:27:14;97896.19;;;4.73;73.47
76195;BME280;64964;48.694;21.206;2024-02-04T04:29:40;97915.09;;;4.77;72.79
76195;BME280;64964;48.694;21.206;2024-02-04T04:32:05;97863.75;;;4.45;72.70
76195;BME280;64964;48.694;21.206;2024-02-04T04:34:31;97869.03;;;4.65;72.75
76195;BME280;64964;48.694;21.206;2024-02-04T04:36:56;97865.19;;;4.79;72.42
76195;BME280;64964;48.694;21.206;2024-02-04T04:39:21;97856.88;;;4.64;72.76
76195;BME280;64964;48.694;21.206;2024-02-04T04:41:47;97879.50;;;4.65;73.14
76195;BME280;64964;48.694;21.206;2024-02-04T04:44:12;97880.59;;;4.72;72.85
76195;BME280;64964;48.694;21.206;2024-02-04T04:46:40;97886.13;;;4.69;72.77
76195;BME280;64964;48.694;21.206;2024-02-04T04:49:06;97904.06;;;4.73;72.55
76195;BME280;64964;48.694;21.206;2024-02-04T04:51:31;97885.16;;;4.70;72.40
76195;BME280;64964;48.694;21.206;2024-02-04T04:53:57;97896.31;;;4.72;72.37
76195;BME280;64964;48.694;21.206;2024-02-04T04:56:22;97888.31;;;4.64;72.35
76195;BME280;64964;48.694;21.206;2024-02-04T04:58:48;97929.69;;;4.70;72.48
76195;BME280;64964;48.694;21.206;2024-02-04T05:01:15;97927.19;;;4.68;72.11
76195;BME280;64964;48.694;21.206;2024-02-04T05:03:40;97909.69;;;4.69;72.03
76195;BME280;64964;48.694;21.206;2024-02-04T05:06:05;97900.69;;;4.52;72.63
76195;BME280;64964;48.694;21.206;2024-02-04T05:08:31;97932.00;;;4.63;72.15
76195;BME280;64964;48.694;21.206;2024-02-04T05:10:56;97931.06;;;4.64;72.33
76195;BME280;64964;48.694;21.206;2024-02-04T05:13:21;97924.97;;;4.64;72.53
76195;BME280;64964;48.694;21.206;2024-02-04T05:15:47;97917.00;;;4.65;72.11
76195;BME280;64964;48.694;21.206;2024-02-04T05:18:12;97909.13;;;4.65;72.43
76195;BME280;64964;48.694;21.206;2024-02-04T05:20:37;97909.13;;;4.65;72.22
76195;BME280;64964;48.694;21.206;2024-02-04T05:23:03;97904.00;;;4.64;72.47
76195;BME280;64964;48.694;21.206;2024-02-04T05:25:28;97910.78;;;4.66;72.20
76195;BME280;64964;48.694;21.206;2024-02-04T05:27:54;97894.25;;;4.56;72.23
76195;BME280;64964;48.694;21.206;2024-02-04T05:30:19;97897.94;;;4.63;72.04
76195;BME280;64964;48.694;21.206;2024-02-04T05:32:44;97897.84;;;4.65;71.96
76195;BME280;64964;48.694;21.206;2024-02-04T05:35:11;97908.44;;;4.63;72.15
76195;BME280;64964;48.694;21.206;2024-02-04T05:37:36;97902.63;;;4.60;72.05
76195;BME280;64964;48.694;21.206;2024-02-04T05:40:03;97916.59;;;4.70;72.27
76195;BME280;64964;48.694;21.206;2024-02-04T05:42:29;97921.00;;;4.69;72.09
76195;BME280;64964;48.694;21.206;2024-02-04T05:44:57;97923.47;;;4.71;72.11
76195;BME280;64964;48.694;21.206;2024-02-04T05:47:22;97892.97;;;4.50;72.16
76195;BME280;64964;48.694;21.206;2024-02-04T05:49:47;97935.88;;;4.69;71.99
76195;BME280;64964;48.694;21.206;2024-02-04T05:52:14;97921.41;;;4.65;72.07
76195;BME280;64964;48.694;21.206;2024-02-04T05:54:40;97893.94;;;4.59;72.09
76195;BME280;64964;48.694;21.206;2024-02-04T05:57:05;97921.53;;;4.63;72.48
76195;BME280;64964;48.694;21.206;2024-02-04T05:59:31;97935.00;;;4.59;72.65
76195;BME280;64964;48.694;21.206;2024-02-04T06:01:56;97926.47;;;4.57;72.64
76195;BME280;64964;48.694;21.206;2024-02-04T06:04:22;97917.19;;;4.43;72.39
76195;BME280;64964;48.694;21.206;2024-02-04T06:06:47;97950.44;;;4.52;73.46
76195;BME280;64964;48.694;21.206;2024-02-04T06:09:12;97931.56;;;4.48;72.90
76195;BME280;64964;48.694;21.206;2024-02-04T06:11:38;97962.56;;;4.53;72.71
76195;BME280;64964;48.694;21.206;2024-02-04T06:14:04;97927.13;;;4.39;72.74
76195;BME280;64964;48.694;21.206;2024-02-04T06:16:29;97936.13;;;4.56;73.06
76195;BME280;64964;48.694;21.206;2024-02-04T06:18:55;97936.38;;;4.53;73.56
76195;BME280;64964;48.694;21.206;2024-02-04T06:21:22;97931.81;;;4.55;73.15
76195;BME280;64964;48.694;21.206;2024-02-04T06:23:47;97935.97;;;4.48;73.03
76195;BME280;64964;48.694;21.206;2024-02-04T06:26:13;97931.97;;;4.54;72.82
76195;BME280;64964;48.694;21.206;2024-02-04T06:28:38;97939.28;;;4.60;72.96
76195;BME280;64964;48.694;21.206;2024-02-04T06:31:04;97923.69;;;4.48;72.47
76195;BME280;64964;48.694;21.206;2024-02-04T06:33:29;97928.69;;;4.52;72.54
76195;BME280;64964;48.694;21.206;2024-02-04T06:35:54;97929.75;;;4.49;72.57
76195;BME280;64964;48.694;21.206;2024-02-04T06:38:20;97945.78;;;4.56;72.19
76195;BME280;64964;48.694;21.206;2024-02-04T06:40:45;97939.25;;;4.50;72.47
76195;BME280;64964;48.694;21.206;2024-02-04T06:43:10;97928.09;;;4.48;72.57
76195;BME280;64964;48.694;21.206;2024-02-04T06:45:36;97941.47;;;4.55;72.92
76195;BME280;64964;48.694;21.206;2024-02-04T06:48:01;97949.22;;;4.56;72.42
76195;BME280;64964;48.694;21.206;2024-02-04T06:50:28;97949.06;;;4.58;72.73
76195;BME280;64964;48.694;21.206;2024-02-04T06:52:53;97950.03;;;4.57;72.49
76195;BME280;64964;48.694;21.206;2024-02-04T06:55:18;97951.44;;;4.61;72.41
76195;BME280;64964;48.694;21.206;2024-02-04T06:57:44;97916.50;;;4.41;72.41
76195;BME280;64964;48.694;21.206;2024-02-04T07:00:10;97952.69;;;4.66;72.50
76195;BME280;64964;48.694;21.206;2024-02-04T07:02:37;97951.31;;;4.72;72.45
76195;BME280;64964;48.694;21.206;2024-02-04T07:05:02;97949.13;;;4.77;72.38
76195;BME280;64964;48.694;21.206;2024-02-04T07:07:27;97959.72;;;4.75;72.57
76195;BME280;64964;48.694;21.206;2024-02-04T07:09:53;97946.94;;;4.72;73.14
76195;BME280;64964;48.694;21.206;2024-02-04T07:12:18;97955.63;;;4.83;73.11
76195;BME280;64964;48.694;21.206;2024-02-04T07:14:44;97954.53;;;4.95;73.22
76195;BME280;64964;48.694;21.206;2024-02-04T07:17:09;97941.72;;;5.02;72.61
76195;BME280;64964;48.694;21.206;2024-02-04T07:19:37;97965.75;;;5.16;72.75
76195;BME280;64964;48.694;21.206;2024-02-04T07:22:02;97974.56;;;5.25;72.98
76195;BME280;64964;48.694;21.206;2024-02-04T07:24:27;97992.66;;;5.38;72.84
76195;BME280;64964;48.694;21.206;2024-02-04T07:26:53;97988.38;;;5.46;72.59
76195;BME280;64964;48.694;21.206;2024-02-04T07:29:18;97963.00;;;5.57;72.58
76195;BME280;64964;48.694;21.206;2024-02-04T07:31:44;97985.63;;;5.77;71.98
76195;BME280;64964;48.694;21.206;2024-02-04T07:34:09;97973.34;;;5.78;71.91
76195;BME280;64964;48.694;21.206;2024-02-04T07:36:34;97960.09;;;5.79;71.82
76195;BME280;64964;48.694;21.206;2024-02-04T07:39:00;97964.50;;;5.98;71.57
76195;BME280;64964;48.694;21.206;2024-02-04T07:41:27;97964.22;;;6.01;71.28
76195;BME280;64964;48.694;21.206;2024-02-04T07:43:53;97943.91;;;5.93;71.57
76195;BME280;64964;48.694;21.206;2024-02-04T07:46:18;97973.97;;;6.18;71.17
76195;BME280;64964;48.694;21.206;2024-02-04T07:48:43;97938.78;;;6.11;71.04
76195;BME280;64964;48.694;21.206;2024-02-04T07:51:09;97956.25;;;6.40;70.84
76195;BME280;64964;48.694;21.206;2024-02-04T07:53:35;97956.19;;;6.49;70.88
76195;BME280;64964;48.694;21.206;2024-02-04T07:56:01;97942.38;;;6.47;70.52
76195;BME280;64964;48.694;21.206;2024-02-04T07:58:28;97955.41;;;6.67;70.46
76195;BME280;64964;48.694;21.206;2024-02-04T08:00:54;97966.47;;;6.70;70.26
76195;BME280;64964;48.694;21.206;2024-02-04T08:03:19;97967.66;;;6.76;70.25
76195;BME280;64964;48.694;21.206;2024-02-04T08:05:45;97942.44;;;6.65;70.17
76195;BME280;64964;48.694;21.206;2024-02-04T08:08:10;97967.78;;;6.84;69.93
76195;BME280;64964;48.694;21.206;2024-02-04T08:10:35;97950.81;;;6.79;70.12
76195;BME280;64964;48.694;21.206;2024-02-04T08:13:01;97983.91;;;6.89;69.81
76195;BME280;64964;48.694;21.206;2024-02-04T08:15:27;97985.72;;;6.89;69.68
76195;BME280;64964;48.694;21.206;2024-02-04T08:17:52;97987.72;;;7.05;69.76
76195;BME280;64964;48.694;21.206;2024-02-04T08:20:18;97989.44;;;7.14;69.81
76195;BME280;64964;48.694;21.206;2024-02-04T08:22:43;98001.50;;;7.16;69.28
76195;BME280;64964;48.694;21.206;2024-02-04T08:25:09;97996.91;;;7.18;69.51
76195;BME280;64964;48.694;21.206;2024-02-04T08:27:37;97988.09;;;7.10;69.14
76195;BME280;64964;48.694;21.206;2024-02-04T08:30:02;97997.50;;;7.12;68.97
76195;BME280;64964;48.694;21.206;2024-02-04T08:32:28;98010.38;;;7.06;69.09
76195;BME280;64964;48.694;21.206;2024-02-04T08:34:53;98027.09;;;7.14;69.23
76195;BME280;64964;48.694;21.206;2024-02-04T08:37:19;98021.81;;;7.14;69.14
76195;BME280;64964;48.694;21.206;2024-02-04T08:39:45;98027.09;;;7.14;68.99
76195;BME280;64964;48.694;21.206;2024-02-04T08:42:10;98037.31;;;7.17;69.13
76195;BME280;64964;48.694;21.206;2024-02-04T08:44:35;98043.03;;;7.31;69.35
76195;BME280;64964;48.694;21.206;2024-02-04T08:47:01;98007.88;;;7.85;68.92
76195;BME280;64964;48.694;21.206;2024-02-04T08:49:29;97999.72;;;8.14;68.12
76195;BME280;64964;48.694;21.206;2024-02-04T08:51:54;97994.19;;;8.43;67.53
76195;BME280;64964;48.694;21.206;2024-02-04T08:54:19;97995.50;;;9.16;67.13
76195;BME280;64964;48.694;21.206;2024-02-04T08:56:45;97976.97;;;9.99;65.34
76195;BME280;64964;48.694;21.206;2024-02-04T08:59:10;97958.50;;;10.71;63.44
76195;BME280;64964;48.694;21.206;2024-02-04T09:01:35;97956.06;;;11.23;61.59
76195;BME280;64964;48.694;21.206;2024-02-04T09:04:01;97946.09;;;11.34;60.27
76195;BME280;64964;48.694;21.206;2024-02-04T09:06:26;97913.66;;;11.09;60.21
76195;BME280;64964;48.694;21.206;2024-02-04T09:08:52;97957.56;;;11.26;60.07
76195;BME280;64964;48.694;21.206;2024-02-04T09:11:17;97955.19;;;11.08;59.07
76195;BME280;64964;48.694;21.206;2024-02-04T09:13:47;97965.13;;;10.98;60.29
76195;BME280;64964;48.694;21.206;2024-02-04T09:16:13;97945.72;;;10.83;61.00
76195;BME280;64964;48.694;21.206;2024-02-04T09:18:38;97961.88;;;10.88;59.46
76195;BME280;64964;48.694;21.206;2024-02-04T09:21:03;97967.03;;;10.81;59.62
76195;BME280;64964;48.694;21.206;2024-02-04T09:23:29;97972.84;;;10.77;58.91
76195;BME280;64964;48.694;21.206;2024-02-04T09:25:54;97978.09;;;10.85;58.77
76195;BME280;64964;48.694;21.206;2024-02-04T09:28:19;97971.44;;;10.97;58.64
76195;BME280;64964;48.694;21.206;2024-02-04T09:30:45;97966.75;;;11.07;57.81
76195;BME280;64964;48.694;21.206;2024-02-04T09:33:11;97969.22;;;11.09;58.09
76195;BME280;64964;48.694;21.206;2024-02-04T09:35:36;97961.72;;;10.89;58.40
76195;BME280;64964;48.694;21.206;2024-02-04T09:38:02;97959.91;;;10.82;58.60
76195;BME280;64964;48.694;21.206;2024-02-04T09:40:28;97952.91;;;10.66;59.06
76195;BME280;64964;48.694;21.206;2024-02-04T09:42:55;97965.13;;;10.67;59.76
76195;BME280;64964;48.694;21.206;2024-02-04T09:45:21;97963.97;;;10.53;59.56
76195;BME280;64964;48.694;21.206;2024-02-04T09:47:47;97969.34;;;10.37;59.80
76195;BME280;64964;48.694;21.206;2024-02-04T09:50:15;97972.13;;;10.19;60.22
76195;BME280;64964;48.694;21.206;2024-02-04T09:52:40;97953.34;;;9.97;60.85
76195;BME280;64964;48.694;21.206;2024-02-04T09:55:12;97910.78;;;9.52;61.09
76195;BME280;64964;48.694;21.206;2024-02-04T09:57:38;97942.63;;;9.66;61.19
76195;BME280;64964;48.694;21.206;2024-02-04T10:00:04;97939.66;;;9.53;62.03
76195;BME280;64964;48.694;21.206;2024-02-04T10:02:33;97935.84;;;9.56;62.32
76195;BME280;64964;48.694;21.206;2024-02-04T10:04:59;97929.25;;;9.60;62.04
76195;BME280;64964;48.694;21.206;2024-02-04T10:07:24;97895.94;;;9.51;62.52
76195;BME280;64964;48.694;21.206;2024-02-04T10:09:50;97908.31;;;9.75;61.78
76195;BME280;64964;48.694;21.206;2024-02-04T10:12:16;97907.47;;;9.82;61.89
76195;BME280;64964;48.694;21.206;2024-02-04T10:14:42;97908.94;;;9.85;61.37
76195;BME280;64964;48.694;21.206;2024-02-04T10:17:08;97920.19;;;9.87;61.72
76195;BME280;64964;48.694;21.206;2024-02-04T10:19:33;97903.66;;;9.85;61.51
76195;BME280;64964;48.694;21.206;2024-02-04T10:22:03;97913.38;;;10.01;61.82
76195;BME280;64964;48.694;21.206;2024-02-04T10:24:29;97906.91;;;10.11;61.86
76195;BME280;64964;48.694;21.206;2024-02-04T10:26:55;97921.59;;;10.38;61.06
76195;BME280;64964;48.694;21.206;2024-02-04T10:29:22;97926.34;;;10.51;60.68
76195;BME280;64964;48.694;21.206;2024-02-04T10:31:47;97908.09;;;10.64;60.52
76195;BME280;64964;48.694;21.206;2024-02-04T10:34:13;97903.91;;;10.78;60.25
76195;BME280;64964;48.694;21.206;2024-02-04T10:36:38;97879.94;;;10.80;60.35
76195;BME280;64964;48.694;21.206;2024-02-04T10:39:04;97906.06;;;11.06;60.06
76195;BME280;64964;48.694;21.206;2024-02-04T10:41:31;97901.91;;;11.11;60.08
76195;BME280;64964;48.694;21.206;2024-02-04T10:43:58;97898.72;;;11.16;60.01
76195;BME280;64964;48.694;21.206;2024-02-04T10:46:30;97878.03;;;11.19;59.31
76195;BME280;64964;48.694;21.206;2024-02-04T10:48:59;97889.78;;;11.40;59.58
76195;BME280;64964;48.694;21.206;2024-02-04T10:51:26;97887.22;;;11.55;59.10
76195;BME280;64964;48.694;21.206;2024-02-04T10:53:54;97876.22;;;11.58;59.16
76195;BME280;64964;48.694;21.206;2024-02-04T10:56:42;97868.13;;;11.59;57.91
76195;BME280;64964;48.694;21.206;2024-02-04T10:59:09;97852.84;;;11.46;57.87
76195;BME280;64964;48.694;21.206;2024-02-04T11:01:41;97892.72;;;11.68;58.13
76195;BME280;64964;48.694;21.206;2024-02-04T11:04:09;97888.59;;;11.65;58.46
76195;BME280;64964;48.694;21.206;2024-02-04T11:06:37;97861.16;;;11.43;58.58
76195;BME280;64964;48.694;21.206;2024-02-04T11:09:03;97882.13;;;11.45;58.80
76195;BME280;64964;48.694;21.206;2024-02-04T11:11:31;97888.44;;;11.44;58.68
76195;BME280;64964;48.694;21.206;2024-02-04T11:13:59;97883.22;;;11.36;58.82
76195;BME280;64964;48.694;21.206;2024-02-04T11:27:44;97842.88;;;11.34;59.25
76195;BME280;64964;48.694;21.206;2024-02-04T11:30:10;97857.13;;;11.47;59.04
76195;BME280;64964;48.694;21.206;2024-02-04T11:32:36;97849.84;;;11.50;58.55
76195;BME280;64964;48.694;21.206;2024-02-04T11:35:02;97833.31;;;11.47;58.56
76195;BME280;64964;48.694;21.206;2024-02-04T11:37:28;97842.06;;;11.48;58.73
76195;BME280;64964;48.694;21.206;2024-02-04T11:39:54;97852.66;;;11.48;58.91
76195;BME280;64964;48.694;21.206;2024-02-04T11:42:23;97854.78;;;11.53;58.85
76195;BME280;64964;48.694;21.206;2024-02-04T11:44:49;97836.09;;;11.31;58.77
76195;BME280;64964;48.694;21.206;2024-02-04T11:47:24;97866.25;;;11.45;58.46
76195;BME280;64964;48.694;21.206;2024-02-04T11:49:54;97884.63;;;11.46;58.71
76195;BME280;64964;48.694;21.206;2024-02-04T11:52:20;97877.44;;;11.32;58.72
76195;BME280;64964;48.694;21.206;2024-02-04T11:54:46;97904.50;;;11.42;59.25
76195;BME280;64964;48.694;21.206;2024-02-04T11:57:11;97888.78;;;11.41;59.40
76195;BME280;64964;48.694;21.206;2024-02-04T11:59:37;97895.91;;;11.40;59.69
76195;BME280;64964;48.694;21.206;2024-02-04T12:02:05;97898.75;;;11.39;58.99
76195;BME280;64964;48.694;21.206;2024-02-04T12:04:31;97881.44;;;11.28;59.35
76195;BME280;64964;48.694;21.206;2024-02-04T12:06:57;97907.69;;;11.38;59.28
76195;BME280;64964;48.694;21.206;2024-02-04T12:09:23;97915.63;;;11.38;59.49
76195;BME280;64964;48.694;21.206;2024-02-04T12:11:49;97906.09;;;11.29;59.37
76195;BME280;64964;48.694;21.206;2024-02-04T12:14:17;97903.09;;;11.32;59.45
76195;BME280;64964;48.694;21.206;2024-02-04T12:16:43;97901.44;;;11.31;59.21
76195;BME280;64964;48.694;21.206;2024-02-04T12:19:10;97861.88;;;11.14;59.19
76195;BME280;64964;48.694;21.206;2024-02-04T12:21:35;97881.44;;;11.28;59.28
76195;BME280;64964;48.694;21.206;2024-02-04T12:24:01;97845.50;;;11.11;59.56
76195;BME280;64964;48.694;21.206;2024-02-04T12:26:27;97859.63;;;11.26;59.30
76195;BME280;64964;48.694;21.206;2024-02-04T12:28:53;97855.34;;;11.25;59.28
76195;BME280;64964;48.694;21.206;2024-02-04T12:31:20;97848.38;;;11.24;59.55
76195;BME280;64964;48.694;21.206;2024-02-04T12:33:56;97841.81;;;11.20;59.05
76195;BME280;64964;48.694;21.206;2024-02-04T12:36:29;97816.88;;;11.14;59.45
76195;BME280;64964;48.694;21.206;2024-02-04T12:39:00;97784.09;;;11.01;58.43
76195;BME280;64964;48.694;21.206;2024-02-04T12:41:26;97803.84;;;11.13;59.12
76195;BME280;64964;48.694;21.206;2024-02-04T12:43:53;97804.75;;;11.20;59.10
76195;BME280;64964;48.694;21.206;2024-02-04T12:46:20;97769.16;;;11.08;58.73
76195;BME280;64964;48.694;21.206;2024-02-04T12:48:50;97762.97;;;11.15;58.02
76195;BME280;64964;48.694;21.206;2024-02-04T12:51:30;97744.88;;;11.04;57.72
76195;BME280;64964;48.694;21.206;2024-02-04T12:54:22;97782.13;;;11.17;58.25
76195;BME280;64964;48.694;21.206;2024-02-04T12:56:56;97779.78;;;11.22;58.79
76195;BME280;64964;48.694;21.206;2024-02-04T12:59:29;97769.38;;;11.21;58.43
76195;BME280;64964;48.694;21.206;2024-02-04T13:02:00;97725.97;;;10.92;58.38
76195;BME280;64964;48.694;21.206;2024-02-04T13:04:26;97758.59;;;11.08;58.47
76195;BME280;64964;48.694;21.206;2024-02-04T13:06:52;97783.91;;;11.25;58.26